sensor_id;sensor_type;location;lat;lon;timestamp;P1;durP1;ratioP1;P2;durP2;ratioP2
11960;SDS011;6040;49.358;11.140;2023-06-14T00:02:22;6.30;;;4.00;;
11960;SDS011;6040;49.358;11.140;2023-06-14T00:04:49;7.10;;;4.13;;
11960;SDS011;6040;49.358;11.140;2023-06-14T00:07:20;5.57;;;4.00;;
11960;SDS011;6040;49.358;11.140;2023-06-14T00:09:59;4.47;;;4.03;;
11960;SDS011;6040;49.358;11.140;2023-06-14T00:12:25;4.37;;;3.80;;
11960;SDS011;6040;49.358;11.140;2023-06-14T00:14:52;5.17;;;4.67;;
11960;SDS011;6040;49.358;11.140;2023-06-14T00:17:19;4.50;;;3.90;;
11960;SDS011;6040;49.358;11.140;2023-06-14T00:19:46;8.93;;;3.90;;
11960;SDS011;6040;49.358;11.140;2023-06-14T00:22:13;4.70;;;3.83;;
11960;SDS011;6040;49.358;11.140;2023-06-14T00:24:41;4.10;;;3.70;;
11960;SDS011;6040;49.358;11.140;2023-06-14T00:27:08;4.83;;;3.70;;
11960;SDS011;6040;49.358;11.140;2023-06-14T00:29:35;4.73;;;3.37;;
11960;SDS011;6040;49.358;11.140;2023-06-14T00:32:02;6.37;;;3.80;;
11960;SDS011;6040;49.358;11.140;2023-06-14T00:34:29;4.77;;;3.50;;
11960;SDS011;6040;49.358;11.140;2023-06-14T00:36:56;5.13;;;3.80;;
11960;SDS011;6040;49.358;11.140;2023-06-14T00:39:23;5.27;;;3.87;;
11960;SDS011;6040;49.358;11.140;2023-06-14T00:41:51;4.47;;;3.53;;
11960;SDS011;6040;49.358;11.140;2023-06-14T00:44:18;7.90;;;3.80;;
11960;SDS011;6040;49.358;11.140;2023-06-14T00:46:45;4.53;;;3.63;;
11960;SDS011;6040;49.358;11.140;2023-06-14T00:49:12;4.30;;;3.60;;
11960;SDS011;6040;49.358;11.140;2023-06-14T00:51:40;4.53;;;3.30;;
11960;SDS011;6040;49.358;11.140;2023-06-14T00:54:07;6.17;;;3.90;;
11960;SDS011;6040;49.358;11.140;2023-06-14T00:56:35;5.27;;;4.20;;
11960;SDS011;6040;49.358;11.140;2023-06-14T00:59:03;6.67;;;4.20;;
11960;SDS011;6040;49.358;11.140;2023-06-14T01:01:31;6.23;;;3.60;;
11960;SDS011;6040;49.358;11.140;2023-06-14T01:03:58;5.10;;;3.40;;
11960;SDS011;6040;49.358;11.140;2023-06-14T01:06:28;4.10;;;3.40;;
11960;SDS011;6040;49.358;11.140;2023-06-14T01:09:01;4.50;;;3.60;;
11960;SDS011;6040;49.358;11.140;2023-06-14T01:11:36;5.60;;;3.63;;
11960;SDS011;6040;49.358;11.140;2023-06-14T01:14:10;5.77;;;3.40;;
11960;SDS011;6040;49.358;11.140;2023-06-14T01:16:38;5.40;;;3.30;;
11960;SDS011;6040;49.358;11.140;2023-06-14T01:19:06;4.57;;;3.60;;
11960;SDS011;6040;49.358;11.140;2023-06-14T01:21:38;5.37;;;3.47;;
11960;SDS011;6040;49.358;11.140;2023-06-14T01:24:08;5.80;;;3.67;;
11960;SDS011;6040;49.358;11.140;2023-06-14T01:26:36;6.67;;;4.30;;
11960;SDS011;6040;49.358;11.140;2023-06-14T01:29:04;4.13;;;3.67;;
11960;SDS011;6040;49.358;11.140;2023-06-14T01:31:33;6.17;;;3.80;;
11960;SDS011;6040;49.358;11.140;2023-06-14T01:34:06;4.13;;;3.73;;
11960;SDS011;6040;49.358;11.140;2023-06-14T01:36:33;7.70;;;4.10;;
11960;SDS011;6040;49.358;11.140;2023-06-14T01:39:03;6.67;;;3.97;;
11960;SDS011;6040;49.358;11.140;2023-06-14T01:41:32;4.77;;;4.23;;
11960;SDS011;6040;49.358;11.140;2023-06-14T01:44:01;4.53;;;3.87;;
11960;SDS011;6040;49.358;11.140;2023-06-14T01:46:29;4.70;;;4.20;;
11960;SDS011;6040;49.358;11.140;2023-06-14T01:48:55;5.27;;;3.77;;
11960;SDS011;6040;49.358;11.140;2023-06-14T01:51:23;5.10;;;3.60;;
11960;SDS011;6040;49.358;11.140;2023-06-14T01:53:50;5.17;;;3.27;;
11960;SDS011;6040;49.358;11.140;2023-06-14T01:56:17;4.60;;;3.60;;
11960;SDS011;6040;49.358;11.140;2023-06-14T01:58:46;6.23;;;3.50;;
11960;SDS011;6040;49.358;11.140;2023-06-14T02:01:13;4.13;;;3.40;;
11960;SDS011;6040;49.358;11.140;2023-06-14T02:03:41;3.90;;;3.50;;
11960;SDS011;6040;49.358;11.140;2023-06-14T02:06:09;3.77;;;3.23;;
11960;SDS011;6040;49.358;11.140;2023-06-14T02:08:37;3.83;;;3.43;;
11960;SDS011;6040;49.358;11.140;2023-06-14T02:11:04;4.03;;;3.53;;
11960;SDS011;6040;49.358;11.140;2023-06-14T02:13:31;6.27;;;3.47;;
11960;SDS011;6040;49.358;11.140;2023-06-14T02:15:59;4.73;;;3.60;;
11960;SDS011;6040;49.358;11.140;2023-06-14T02:18:26;4.20;;;3.60;;
11960;SDS011;6040;49.358;11.140;2023-06-14T02:20:53;4.13;;;3.70;;
11960;SDS011;6040;49.358;11.140;2023-06-14T02:23:20;4.27;;;3.80;;
11960;SDS011;6040;49.358;11.140;2023-06-14T02:25:46;5.93;;;3.57;;
11960;SDS011;6040;49.358;11.140;2023-06-14T02:28:13;4.00;;;3.60;;
11960;SDS011;6040;49.358;11.140;2023-06-14T02:30:40;4.20;;;3.37;;
11960;SDS011;6040;49.358;11.140;2023-06-14T02:33:08;3.97;;;3.63;;
11960;SDS011;6040;49.358;11.140;2023-06-14T02:35:38;5.17;;;3.40;;
11960;SDS011;6040;49.358;11.140;2023-06-14T02:38:04;4.87;;;3.80;;
11960;SDS011;6040;49.358;11.140;2023-06-14T02:40:31;5.53;;;3.60;;
11960;SDS011;6040;49.358;11.140;2023-06-14T02:42:58;4.60;;;3.67;;
11960;SDS011;6040;49.358;11.140;2023-06-14T02:45:25;6.87;;;4.17;;
11960;SDS011;6040;49.358;11.140;2023-06-14T02:47:52;8.47;;;4.10;;
11960;SDS011;6040;49.358;11.140;2023-06-14T02:50:21;4.00;;;3.60;;
11960;SDS011;6040;49.358;11.140;2023-06-14T02:52:48;6.13;;;4.03;;
11960;SDS011;6040;49.358;11.140;2023-06-14T02:55:15;5.93;;;3.70;;
11960;SDS011;6040;49.358;11.140;2023-06-14T02:57:42;5.80;;;3.43;;
11960;SDS011;6040;49.358;11.140;2023-06-14T03:00:10;4.47;;;3.87;;
11960;SDS011;6040;49.358;11.140;2023-06-14T03:02:38;4.00;;;3.60;;
11960;SDS011;6040;49.358;11.140;2023-06-14T03:05:05;5.27;;;3.70;;
11960;SDS011;6040;49.358;11.140;2023-06-14T03:07:36;5.23;;;4.00;;
11960;SDS011;6040;49.358;11.140;2023-06-14T03:10:06;5.37;;;3.70;;
11960;SDS011;6040;49.358;11.140;2023-06-14T03:12:35;4.67;;;3.30;;
11960;SDS011;6040;49.358;11.140;2023-06-14T03:15:02;4.20;;;3.80;;
11960;SDS011;6040;49.358;11.140;2023-06-14T03:17:29;5.43;;;4.00;;
11960;SDS011;6040;49.358;11.140;2023-06-14T03:19:58;6.07;;;4.00;;
11960;SDS011;6040;49.358;11.140;2023-06-14T03:22:25;4.13;;;3.57;;
11960;SDS011;6040;49.358;11.140;2023-06-14T03:24:54;4.43;;;3.43;;
11960;SDS011;6040;49.358;11.140;2023-06-14T03:27:22;7.10;;;3.60;;
11960;SDS011;6040;49.358;11.140;2023-06-14T03:29:48;6.47;;;3.90;;
11960;SDS011;6040;49.358;11.140;2023-06-14T03:32:15;5.93;;;3.70;;
11960;SDS011;6040;49.358;11.140;2023-06-14T03:34:42;5.10;;;3.60;;
11960;SDS011;6040;49.358;11.140;2023-06-14T03:37:10;4.20;;;3.80;;
11960;SDS011;6040;49.358;11.140;2023-06-14T03:39:37;5.50;;;3.70;;
11960;SDS011;6040;49.358;11.140;2023-06-14T03:42:12;5.93;;;3.57;;
11960;SDS011;6040;49.358;11.140;2023-06-14T03:44:39;4.77;;;3.70;;
11960;SDS011;6040;49.358;11.140;2023-06-14T03:47:06;4.00;;;3.40;;
11960;SDS011;6040;49.358;11.140;2023-06-14T03:49:33;4.50;;;3.57;;
11960;SDS011;6040;49.358;11.140;2023-06-14T03:52:00;5.97;;;3.40;;
11960;SDS011;6040;49.358;11.140;2023-06-14T03:54:27;3.90;;;3.50;;
11960;SDS011;6040;49.358;11.140;2023-06-14T03:56:54;5.50;;;3.90;;
11960;SDS011;6040;49.358;11.140;2023-06-14T03:59:24;4.93;;;3.90;;
11960;SDS011;6040;49.358;11.140;2023-06-14T04:01:51;6.80;;;3.50;;
11960;SDS011;6040;49.358;11.140;2023-06-14T04:04:18;3.80;;;3.33;;
11960;SDS011;6040;49.358;11.140;2023-06-14T04:06:46;6.10;;;3.57;;
11960;SDS011;6040;49.358;11.140;2023-06-14T04:09:13;5.93;;;3.73;;
11960;SDS011;6040;49.358;11.140;2023-06-14T04:11:40;4.57;;;3.77;;
11960;SDS011;6040;49.358;11.140;2023-06-14T04:14:07;6.27;;;3.80;;
11960;SDS011;6040;49.358;11.140;2023-06-14T04:16:35;5.07;;;3.73;;
11960;SDS011;6040;49.358;11.140;2023-06-14T04:19:02;4.47;;;3.57;;
11960;SDS011;6040;49.358;11.140;2023-06-14T04:21:28;5.07;;;3.90;;
11960;SDS011;6040;49.358;11.140;2023-06-14T04:23:56;4.70;;;3.70;;
11960;SDS011;6040;49.358;11.140;2023-06-14T04:26:23;5.00;;;3.80;;
11960;SDS011;6040;49.358;11.140;2023-06-14T04:28:54;4.53;;;3.50;;
11960;SDS011;6040;49.358;11.140;2023-06-14T04:31:21;4.27;;;3.60;;
11960;SDS011;6040;49.358;11.140;2023-06-14T04:33:51;4.20;;;3.80;;
11960;SDS011;6040;49.358;11.140;2023-06-14T04:36:20;4.93;;;3.70;;
11960;SDS011;6040;49.358;11.140;2023-06-14T04:38:47;5.80;;;3.50;;
11960;SDS011;6040;49.358;11.140;2023-06-14T04:41:14;5.93;;;3.90;;
11960;SDS011;6040;49.358;11.140;2023-06-14T04:43:41;7.87;;;3.87;;
11960;SDS011;6040;49.358;11.140;2023-06-14T04:46:08;4.03;;;3.63;;
11960;SDS011;6040;49.358;11.140;2023-06-14T04:48:36;5.37;;;3.87;;
11960;SDS011;6040;49.358;11.140;2023-06-14T04:51:05;4.80;;;3.30;;
11960;SDS011;6040;49.358;11.140;2023-06-14T04:53:33;4.17;;;3.77;;
11960;SDS011;6040;49.358;11.140;2023-06-14T04:55:59;4.30;;;3.43;;
11960;SDS011;6040;49.358;11.140;2023-06-14T04:58:27;5.47;;;3.70;;
11960;SDS011;6040;49.358;11.140;2023-06-14T05:00:54;4.30;;;3.57;;
11960;SDS011;6040;49.358;11.140;2023-06-14T05:03:22;5.13;;;3.70;;
11960;SDS011;6040;49.358;11.140;2023-06-14T05:05:49;4.40;;;4.00;;
11960;SDS011;6040;49.358;11.140;2023-06-14T05:08:19;3.67;;;3.37;;
11960;SDS011;6040;49.358;11.140;2023-06-14T05:10:48;5.70;;;3.50;;
11960;SDS011;6040;49.358;11.140;2023-06-14T05:13:15;4.97;;;3.60;;
11960;SDS011;6040;49.358;11.140;2023-06-14T05:15:42;4.13;;;3.53;;
11960;SDS011;6040;49.358;11.140;2023-06-14T05:18:09;4.10;;;3.37;;
11960;SDS011;6040;49.358;11.140;2023-06-14T05:20:36;5.27;;;3.50;;
11960;SDS011;6040;49.358;11.140;2023-06-14T05:23:03;7.40;;;3.70;;
11960;SDS011;6040;49.358;11.140;2023-06-14T05:25:31;3.67;;;3.37;;
11960;SDS011;6040;49.358;11.140;2023-06-14T05:27:58;6.23;;;4.07;;
11960;SDS011;6040;49.358;11.140;2023-06-14T05:30:25;3.80;;;3.40;;
11960;SDS011;6040;49.358;11.140;2023-06-14T05:32:54;4.47;;;3.30;;
11960;SDS011;6040;49.358;11.140;2023-06-14T05:35:21;5.13;;;3.37;;
11960;SDS011;6040;49.358;11.140;2023-06-14T05:37:48;4.27;;;3.73;;
11960;SDS011;6040;49.358;11.140;2023-06-14T05:40:15;6.17;;;3.50;;
11960;SDS011;6040;49.358;11.140;2023-06-14T05:42:44;3.60;;;3.30;;
11960;SDS011;6040;49.358;11.140;2023-06-14T05:45:11;4.50;;;3.33;;
11960;SDS011;6040;49.358;11.140;2023-06-14T05:47:40;6.20;;;3.60;;
11960;SDS011;6040;49.358;11.140;2023-06-14T05:50:07;4.90;;;3.47;;
11960;SDS011;6040;49.358;11.140;2023-06-14T05:52:34;4.20;;;3.33;;
11960;SDS011;6040;49.358;11.140;2023-06-14T05:55:01;3.97;;;3.57;;
11960;SDS011;6040;49.358;11.140;2023-06-14T05:57:28;4.03;;;3.10;;
11960;SDS011;6040;49.358;11.140;2023-06-14T05:59:56;4.37;;;3.90;;
11960;SDS011;6040;49.358;11.140;2023-06-14T06:02:23;6.57;;;3.50;;
11960;SDS011;6040;49.358;11.140;2023-06-14T06:04:50;6.37;;;3.37;;
11960;SDS011;6040;49.358;11.140;2023-06-14T06:07:17;4.50;;;3.50;;
11960;SDS011;6040;49.358;11.140;2023-06-14T06:09:44;3.57;;;3.10;;
11960;SDS011;6040;49.358;11.140;2023-06-14T06:12:10;3.73;;;3.37;;
11960;SDS011;6040;49.358;11.140;2023-06-14T06:14:37;4.73;;;3.73;;
11960;SDS011;6040;49.358;11.140;2023-06-14T06:17:06;5.40;;;3.80;;
11960;SDS011;6040;49.358;11.140;2023-06-14T06:19:33;3.33;;;3.00;;
11960;SDS011;6040;49.358;11.140;2023-06-14T06:21:59;3.73;;;3.13;;
11960;SDS011;6040;49.358;11.140;2023-06-14T06:24:26;6.00;;;3.37;;
11960;SDS011;6040;49.358;11.140;2023-06-14T06:26:53;3.87;;;3.53;;
11960;SDS011;6040;49.358;11.140;2023-06-14T06:29:20;5.87;;;3.33;;
11960;SDS011;6040;49.358;11.140;2023-06-14T06:31:47;6.43;;;3.60;;
11960;SDS011;6040;49.358;11.140;2023-06-14T06:34:15;4.00;;;3.50;;
11960;SDS011;6040;49.358;11.140;2023-06-14T06:36:42;4.00;;;3.27;;
11960;SDS011;6040;49.358;11.140;2023-06-14T06:39:09;7.47;;;3.73;;
11960;SDS011;6040;49.358;11.140;2023-06-14T06:41:37;17.10;;;4.03;;
11960;SDS011;6040;49.358;11.140;2023-06-14T06:44:04;4.47;;;3.10;;
11960;SDS011;6040;49.358;11.140;2023-06-14T06:46:31;4.97;;;3.13;;
11960;SDS011;6040;49.358;11.140;2023-06-14T06:48:58;7.73;;;3.70;;
11960;SDS011;6040;49.358;11.140;2023-06-14T06:51:26;7.60;;;3.13;;
11960;SDS011;6040;49.358;11.140;2023-06-14T06:53:53;7.17;;;3.50;;
11960;SDS011;6040;49.358;11.140;2023-06-14T06:56:20;8.63;;;3.30;;
11960;SDS011;6040;49.358;11.140;2023-06-14T06:58:48;4.80;;;2.57;;
11960;SDS011;6040;49.358;11.140;2023-06-14T07:01:15;4.47;;;3.23;;
11960;SDS011;6040;49.358;11.140;2023-06-14T07:03:42;3.77;;;3.20;;
11960;SDS011;6040;49.358;11.140;2023-06-14T07:06:09;6.30;;;3.30;;
11960;SDS011;6040;49.358;11.140;2023-06-14T07:08:37;3.20;;;2.90;;
11960;SDS011;6040;49.358;11.140;2023-06-14T07:11:04;3.97;;;3.17;;
11960;SDS011;6040;49.358;11.140;2023-06-14T07:13:32;3.90;;;3.10;;
11960;SDS011;6040;49.358;11.140;2023-06-14T07:15:59;3.83;;;2.80;;
11960;SDS011;6040;49.358;11.140;2023-06-14T07:18:26;8.30;;;3.00;;
11960;SDS011;6040;49.358;11.140;2023-06-14T07:20:53;4.20;;;2.90;;
11960;SDS011;6040;49.358;11.140;2023-06-14T07:23:21;3.60;;;3.13;;
11960;SDS011;6040;49.358;11.140;2023-06-14T07:25:49;5.63;;;3.17;;
11960;SDS011;6040;49.358;11.140;2023-06-14T07:28:16;3.20;;;2.90;;
11960;SDS011;6040;49.358;11.140;2023-06-14T07:30:43;4.37;;;3.10;;
11960;SDS011;6040;49.358;11.140;2023-06-14T07:33:10;7.57;;;3.00;;
11960;SDS011;6040;49.358;11.140;2023-06-14T07:35:37;5.57;;;3.33;;
11960;SDS011;6040;49.358;11.140;2023-06-14T07:38:04;4.17;;;3.17;;
11960;SDS011;6040;49.358;11.140;2023-06-14T07:40:31;3.33;;;2.97;;
11960;SDS011;6040;49.358;11.140;2023-06-14T07:42:59;3.70;;;2.87;;
11960;SDS011;6040;49.358;11.140;2023-06-14T07:45:26;7.20;;;2.90;;
11960;SDS011;6040;49.358;11.140;2023-06-14T07:47:53;3.97;;;3.00;;
11960;SDS011;6040;49.358;11.140;2023-06-14T07:50:21;7.73;;;3.07;;
11960;SDS011;6040;49.358;11.140;2023-06-14T07:52:48;4.40;;;3.10;;
11960;SDS011;6040;49.358;11.140;2023-06-14T07:55:15;3.03;;;2.73;;
11960;SDS011;6040;49.358;11.140;2023-06-14T07:57:42;4.47;;;3.07;;
11960;SDS011;6040;49.358;11.140;2023-06-14T08:00:12;4.33;;;2.90;;
11960;SDS011;6040;49.358;11.140;2023-06-14T08:02:40;4.30;;;2.97;;
11960;SDS011;6040;49.358;11.140;2023-06-14T08:05:08;3.70;;;2.67;;
11960;SDS011;6040;49.358;11.140;2023-06-14T08:07:35;3.40;;;3.10;;
11960;SDS011;6040;49.358;11.140;2023-06-14T08:10:03;4.70;;;3.10;;
11960;SDS011;6040;49.358;11.140;2023-06-14T08:12:30;5.53;;;2.90;;
11960;SDS011;6040;49.358;11.140;2023-06-14T08:14:57;4.20;;;3.30;;
11960;SDS011;6040;49.358;11.140;2023-06-14T08:17:25;3.77;;;2.70;;
11960;SDS011;6040;49.358;11.140;2023-06-14T08:19:52;2.80;;;2.60;;
11960;SDS011;6040;49.358;11.140;2023-06-14T08:22:22;2.90;;;2.70;;
11960;SDS011;6040;49.358;11.140;2023-06-14T08:24:51;5.27;;;3.13;;
11960;SDS011;6040;49.358;11.140;2023-06-14T08:27:19;4.03;;;2.90;;
11960;SDS011;6040;49.358;11.140;2023-06-14T08:29:46;3.77;;;3.07;;
11960;SDS011;6040;49.358;11.140;2023-06-14T08:32:12;3.07;;;2.83;;
11960;SDS011;6040;49.358;11.140;2023-06-14T08:34:41;4.90;;;3.23;;
11960;SDS011;6040;49.358;11.140;2023-06-14T08:37:08;5.97;;;2.90;;
11960;SDS011;6040;49.358;11.140;2023-06-14T08:39:34;3.03;;;2.70;;
11960;SDS011;6040;49.358;11.140;2023-06-14T08:42:01;11.17;;;3.03;;
11960;SDS011;6040;49.358;11.140;2023-06-14T08:44:29;4.20;;;2.73;;
11960;SDS011;6040;49.358;11.140;2023-06-14T08:46:56;4.20;;;3.00;;
11960;SDS011;6040;49.358;11.140;2023-06-14T08:49:24;3.90;;;2.70;;
11960;SDS011;6040;49.358;11.140;2023-06-14T08:51:55;2.80;;;2.60;;
11960;SDS011;6040;49.358;11.140;2023-06-14T08:54:24;6.60;;;3.17;;
11960;SDS011;6040;49.358;11.140;2023-06-14T08:56:52;3.20;;;2.90;;
11960;SDS011;6040;49.358;11.140;2023-06-14T08:59:22;6.23;;;3.20;;
11960;SDS011;6040;49.358;11.140;2023-06-14T09:01:51;5.00;;;3.30;;
11960;SDS011;6040;49.358;11.140;2023-06-14T09:04:19;9.13;;;3.33;;
11960;SDS011;6040;49.358;11.140;2023-06-14T09:06:46;4.77;;;3.07;;
11960;SDS011;6040;49.358;11.140;2023-06-14T09:09:19;4.53;;;3.10;;
11960;SDS011;6040;49.358;11.140;2023-06-14T09:11:46;4.43;;;3.10;;
11960;SDS011;6040;49.358;11.140;2023-06-14T09:14:13;3.63;;;2.90;;
11960;SDS011;6040;49.358;11.140;2023-06-14T09:16:40;4.40;;;3.10;;
11960;SDS011;6040;49.358;11.140;2023-06-14T09:19:07;3.90;;;3.13;;
11960;SDS011;6040;49.358;11.140;2023-06-14T09:21:34;4.47;;;3.17;;
11960;SDS011;6040;49.358;11.140;2023-06-14T09:24:02;5.17;;;3.20;;
11960;SDS011;6040;49.358;11.140;2023-06-14T09:26:31;6.20;;;3.60;;
11960;SDS011;6040;49.358;11.140;2023-06-14T09:28:58;4.47;;;3.30;;
11960;SDS011;6040;49.358;11.140;2023-06-14T09:31:25;4.80;;;3.30;;
11960;SDS011;6040;49.358;11.140;2023-06-14T09:33:56;5.83;;;3.20;;
11960;SDS011;6040;49.358;11.140;2023-06-14T09:36:24;5.57;;;3.50;;
11960;SDS011;6040;49.358;11.140;2023-06-14T09:38:52;6.00;;;3.33;;
11960;SDS011;6040;49.358;11.140;2023-06-14T09:41:19;5.57;;;2.73;;
11960;SDS011;6040;49.358;11.140;2023-06-14T09:43:48;4.17;;;2.73;;
11960;SDS011;6040;49.358;11.140;2023-06-14T09:46:15;6.50;;;3.43;;
11960;SDS011;6040;49.358;11.140;2023-06-14T09:48:42;4.07;;;3.10;;
11960;SDS011;6040;49.358;11.140;2023-06-14T09:51:10;4.50;;;3.20;;
11960;SDS011;6040;49.358;11.140;2023-06-14T09:53:39;3.20;;;2.90;;
11960;SDS011;6040;49.358;11.140;2023-06-14T09:56:08;4.60;;;3.33;;
11960;SDS011;6040;49.358;11.140;2023-06-14T09:58:37;3.57;;;3.10;;
11960;SDS011;6040;49.358;11.140;2023-06-14T10:01:08;3.97;;;3.03;;
11960;SDS011;6040;49.358;11.140;2023-06-14T10:03:38;4.03;;;3.20;;
11960;SDS011;6040;49.358;11.140;2023-06-14T10:06:06;3.53;;;3.03;;
11960;SDS011;6040;49.358;11.140;2023-06-14T10:08:35;6.17;;;3.00;;
11960;SDS011;6040;49.358;11.140;2023-06-14T10:11:03;3.40;;;3.10;;
11960;SDS011;6040;49.358;11.140;2023-06-14T10:13:31;3.37;;;3.07;;
11960;SDS011;6040;49.358;11.140;2023-06-14T10:16:01;3.93;;;3.20;;
11960;SDS011;6040;49.358;11.140;2023-06-14T10:18:36;4.27;;;2.97;;
11960;SDS011;6040;49.358;11.140;2023-06-14T10:21:13;3.30;;;3.00;;
11960;SDS011;6040;49.358;11.140;2023-06-14T10:23:48;5.20;;;3.13;;
11960;SDS011;6040;49.358;11.140;2023-06-14T10:26:19;3.80;;;2.87;;
11960;SDS011;6040;49.358;11.140;2023-06-14T10:28:56;4.10;;;3.00;;
11960;SDS011;6040;49.358;11.140;2023-06-14T10:31:39;4.40;;;3.13;;
11960;SDS011;6040;49.358;11.140;2023-06-14T10:34:08;3.50;;;3.03;;
11960;SDS011;6040;49.358;11.140;2023-06-14T10:36:36;4.17;;;3.03;;
11960;SDS011;6040;49.358;11.140;2023-06-14T10:39:04;5.23;;;3.20;;
11960;SDS011;6040;49.358;11.140;2023-06-14T10:41:34;3.40;;;3.10;;
11960;SDS011;6040;49.358;11.140;2023-06-14T10:47:00;4.37;;;3.03;;
11960;SDS011;6040;49.358;11.140;2023-06-14T10:49:39;4.60;;;2.90;;
11960;SDS011;6040;49.358;11.140;2023-06-14T10:52:08;4.57;;;3.17;;
11960;SDS011;6040;49.358;11.140;2023-06-14T10:57:34;7.07;;;3.03;;
11960;SDS011;6040;49.358;11.140;2023-06-14T11:00:02;3.40;;;2.93;;
11960;SDS011;6040;49.358;11.140;2023-06-14T11:02:45;4.93;;;2.90;;
11960;SDS011;6040;49.358;11.140;2023-06-14T11:05:23;3.83;;;2.90;;
11960;SDS011;6040;49.358;11.140;2023-06-14T11:07:55;4.03;;;2.90;;
11960;SDS011;6040;49.358;11.140;2023-06-14T11:10:35;3.97;;;2.80;;
11960;SDS011;6040;49.358;11.140;2023-06-14T11:13:03;3.80;;;2.80;;
11960;SDS011;6040;49.358;11.140;2023-06-14T11:15:30;4.00;;;3.27;;
11960;SDS011;6040;49.358;11.140;2023-06-14T11:18:00;4.60;;;2.90;;
11960;SDS011;6040;49.358;11.140;2023-06-14T11:20:30;6.10;;;3.20;;
11960;SDS011;6040;49.358;11.140;2023-06-14T11:22:58;6.43;;;3.50;;
11960;SDS011;6040;49.358;11.140;2023-06-14T11:25:25;6.70;;;2.90;;
11960;SDS011;6040;49.358;11.140;2023-06-14T11:27:53;3.40;;;2.90;;
11960;SDS011;6040;49.358;11.140;2023-06-14T11:30:20;4.03;;;3.07;;
11960;SDS011;6040;49.358;11.140;2023-06-14T11:32:47;3.20;;;2.90;;
11960;SDS011;6040;49.358;11.140;2023-06-14T11:35:15;4.53;;;2.93;;
11960;SDS011;6040;49.358;11.140;2023-06-14T11:37:44;7.23;;;3.10;;
11960;SDS011;6040;49.358;11.140;2023-06-14T11:40:11;4.17;;;2.83;;
11960;SDS011;6040;49.358;11.140;2023-06-14T11:42:39;3.83;;;2.90;;
11960;SDS011;6040;49.358;11.140;2023-06-14T11:45:07;7.80;;;3.13;;
11960;SDS011;6040;49.358;11.140;2023-06-14T11:47:35;5.60;;;3.00;;
11960;SDS011;6040;49.358;11.140;2023-06-14T11:50:03;3.40;;;3.10;;
11960;SDS011;6040;49.358;11.140;2023-06-14T11:52:32;4.07;;;2.87;;
11960;SDS011;6040;49.358;11.140;2023-06-14T11:55:00;3.20;;;2.90;;
11960;SDS011;6040;49.358;11.140;2023-06-14T11:57:29;5.33;;;3.40;;
11960;SDS011;6040;49.358;11.140;2023-06-14T11:59:56;7.10;;;3.03;;
11960;SDS011;6040;49.358;11.140;2023-06-14T12:02:23;4.60;;;3.00;;
11960;SDS011;6040;49.358;11.140;2023-06-14T12:04:52;4.57;;;2.90;;
11960;SDS011;6040;49.358;11.140;2023-06-14T12:07:20;3.93;;;2.77;;
11960;SDS011;6040;49.358;11.140;2023-06-14T12:10:05;5.47;;;3.10;;
11960;SDS011;6040;49.358;11.140;2023-06-14T12:12:35;6.50;;;3.40;;
11960;SDS011;6040;49.358;11.140;2023-06-14T12:15:05;3.40;;;2.97;;
11960;SDS011;6040;49.358;11.140;2023-06-14T12:17:33;4.90;;;3.07;;
11960;SDS011;6040;49.358;11.140;2023-06-14T12:20:05;3.27;;;2.97;;
11960;SDS011;6040;49.358;11.140;2023-06-14T12:22:35;8.43;;;3.43;;
11960;SDS011;6040;49.358;11.140;2023-06-14T12:25:03;6.70;;;2.95;;
11960;SDS011;6040;49.358;11.140;2023-06-14T12:27:34;4.30;;;3.10;;
11960;SDS011;6040;49.358;11.140;2023-06-14T12:30:01;4.30;;;3.20;;
11960;SDS011;6040;49.358;11.140;2023-06-14T12:32:30;3.07;;;2.87;;
11960;SDS011;6040;49.358;11.140;2023-06-14T12:34:57;3.97;;;3.17;;
11960;SDS011;6040;49.358;11.140;2023-06-14T12:37:23;3.33;;;3.03;;
11960;SDS011;6040;49.358;11.140;2023-06-14T12:39:50;5.63;;;2.73;;
11960;SDS011;6040;49.358;11.140;2023-06-14T12:42:18;4.57;;;2.97;;
11960;SDS011;6040;49.358;11.140;2023-06-14T12:44:45;3.30;;;2.70;;
11960;SDS011;6040;49.358;11.140;2023-06-14T12:47:12;3.37;;;3.07;;
11960;SDS011;6040;49.358;11.140;2023-06-14T12:49:39;3.90;;;3.10;;
11960;SDS011;6040;49.358;11.140;2023-06-14T12:52:07;4.37;;;3.07;;
11960;SDS011;6040;49.358;11.140;2023-06-14T12:54:35;3.73;;;3.03;;
11960;SDS011;6040;49.358;11.140;2023-06-14T12:57:01;5.17;;;3.10;;
11960;SDS011;6040;49.358;11.140;2023-06-14T12:59:30;4.40;;;3.10;;
11960;SDS011;6040;49.358;11.140;2023-06-14T13:01:59;3.77;;;3.17;;
11960;SDS011;6040;49.358;11.140;2023-06-14T13:04:36;6.70;;;2.90;;
11960;SDS011;6040;49.358;11.140;2023-06-14T13:07:02;3.07;;;2.77;;
11960;SDS011;6040;49.358;11.140;2023-06-14T13:09:30;3.88;;;3.22;;
11960;SDS011;6040;49.358;11.140;2023-06-14T13:11:57;3.50;;;2.95;;
11960;SDS011;6040;49.358;11.140;2023-06-14T13:14:23;6.40;;;3.28;;
11960;SDS011;6040;49.358;11.140;2023-06-14T13:16:52;4.00;;;2.97;;
11960;SDS011;6040;49.358;11.140;2023-06-14T13:19:20;4.30;;;3.30;;
11960;SDS011;6040;49.358;11.140;2023-06-14T13:21:47;5.07;;;3.30;;
11960;SDS011;6040;49.358;11.140;2023-06-14T13:24:14;6.78;;;3.20;;
11960;SDS011;6040;49.358;11.140;2023-06-14T13:26:41;5.18;;;3.20;;
11960;SDS011;6040;49.358;11.140;2023-06-14T13:29:08;4.38;;;2.92;;
11960;SDS011;6040;49.358;11.140;2023-06-14T13:31:35;4.63;;;3.08;;
11960;SDS011;6040;49.358;11.140;2023-06-14T13:34:03;3.22;;;2.80;;
11960;SDS011;6040;49.358;11.140;2023-06-14T13:36:30;6.18;;;2.72;;
11960;SDS011;6040;49.358;11.140;2023-06-14T13:38:57;3.45;;;2.90;;
11960;SDS011;6040;49.358;11.140;2023-06-14T13:41:25;5.25;;;2.80;;
11960;SDS011;6040;49.358;11.140;2023-06-14T13:43:56;4.65;;;2.92;;
11960;SDS011;6040;49.358;11.140;2023-06-14T13:46:23;5.45;;;3.35;;
11960;SDS011;6040;49.358;11.140;2023-06-14T13:48:50;3.47;;;3.17;;
11960;SDS011;6040;49.358;11.140;2023-06-14T13:51:18;4.10;;;2.72;;
11960;SDS011;6040;49.358;11.140;2023-06-14T13:53:45;4.38;;;2.67;;
11960;SDS011;6040;49.358;11.140;2023-06-14T13:56:13;5.00;;;3.28;;
11960;SDS011;6040;49.358;11.140;2023-06-14T13:58:40;3.63;;;2.67;;
11960;SDS011;6040;49.358;11.140;2023-06-14T14:01:07;4.15;;;3.22;;
11960;SDS011;6040;49.358;11.140;2023-06-14T14:03:34;4.25;;;2.83;;
11960;SDS011;6040;49.358;11.140;2023-06-14T14:06:01;28.92;;;4.32;;
11960;SDS011;6040;49.358;11.140;2023-06-14T14:08:30;11.77;;;3.40;;
11960;SDS011;6040;49.358;11.140;2023-06-14T14:10:57;5.75;;;2.65;;
11960;SDS011;6040;49.358;11.140;2023-06-14T14:13:24;5.97;;;2.80;;
11960;SDS011;6040;49.358;11.140;2023-06-14T14:15:51;3.57;;;3.00;;
11960;SDS011;6040;49.358;11.140;2023-06-14T14:18:19;3.07;;;2.77;;
11960;SDS011;6040;49.358;11.140;2023-06-14T14:20:46;4.67;;;2.77;;
11960;SDS011;6040;49.358;11.140;2023-06-14T14:23:13;3.10;;;2.80;;
11960;SDS011;6040;49.358;11.140;2023-06-14T14:25:41;2.90;;;2.70;;
11960;SDS011;6040;49.358;11.140;2023-06-14T14:28:08;8.30;;;3.20;;
11960;SDS011;6040;49.358;11.140;2023-06-14T14:30:36;4.23;;;2.93;;
11960;SDS011;6040;49.358;11.140;2023-06-14T14:33:04;4.07;;;3.10;;
11960;SDS011;6040;49.358;11.140;2023-06-14T14:35:31;3.03;;;2.80;;
11960;SDS011;6040;49.358;11.140;2023-06-14T14:37:58;5.23;;;2.77;;
11960;SDS011;6040;49.358;11.140;2023-06-14T14:40:25;4.77;;;3.10;;
11960;SDS011;6040;49.358;11.140;2023-06-14T14:42:54;3.63;;;3.20;;
11960;SDS011;6040;49.358;11.140;2023-06-14T14:45:20;6.13;;;3.43;;
11960;SDS011;6040;49.358;11.140;2023-06-14T14:47:47;6.20;;;3.23;;
11960;SDS011;6040;49.358;11.140;2023-06-14T14:50:14;3.70;;;3.40;;
11960;SDS011;6040;49.358;11.140;2023-06-14T14:52:41;4.50;;;3.10;;
11960;SDS011;6040;49.358;11.140;2023-06-14T14:55:08;3.57;;;3.00;;
11960;SDS011;6040;49.358;11.140;2023-06-14T14:57:35;3.43;;;2.70;;
11960;SDS011;6040;49.358;11.140;2023-06-14T15:00:04;3.20;;;2.90;;